sensor_id;sensor_type;location;lat;lon;timestamp;temperature;humidity
2855;DHT22;1435;49.472;10.940;2023-06-04T00:04:37;14.80;66.00
2855;DHT22;1435;49.472;10.940;2023-06-04T00:09:40;14.70;65.20
2855;DHT22;1435;49.472;10.940;2023-06-04T00:14:42;14.70;65.50
2855;DHT22;1435;49.472;10.940;2023-06-04T00:19:44;14.60;65.90
2855;DHT22;1435;49.472;10.940;2023-06-04T00:24:47;14.50;65.10
2855;DHT22;1435;49.472;10.940;2023-06-04T00:29:48;14.50;65.20
2855;DHT22;1435;49.472;10.940;2023-06-04T00:34:50;14.40;64.50
2855;DHT22;1435;49.472;10.940;2023-06-04T00:39:54;14.30;66.10
2855;DHT22;1435;49.472;10.940;2023-06-04T00:44:56;14.20;66.60
2855;DHT22;1435;49.472;10.940;2023-06-04T00:49:58;14.20;66.00
2855;DHT22;1435;49.472;10.940;2023-06-04T00:55:02;14.10;66.60
2855;DHT22;1435;49.472;10.940;2023-06-04T01:00:04;14.00;66.70
2855;DHT22;1435;49.472;10.940;2023-06-04T01:05:14;13.90;67.70
2855;DHT22;1435;49.472;10.940;2023-06-04T01:10:19;13.80;66.90
2855;DHT22;1435;49.472;10.940;2023-06-04T01:15:22;13.70;66.80
2855;DHT22;1435;49.472;10.940;2023-06-04T01:20:29;13.60;67.30
2855;DHT22;1435;49.472;10.940;2023-06-04T01:25:37;13.50;67.20
2855;DHT22;1435;49.472;10.940;2023-06-04T01:30:42;13.40;66.40
2855;DHT22;1435;49.472;10.940;2023-06-04T01:35:46;13.40;67.90
2855;DHT22;1435;49.472;10.940;2023-06-04T01:40:49;13.30;67.70
2855;DHT22;1435;49.472;10.940;2023-06-04T01:45:53;13.20;68.20
2855;DHT22;1435;49.472;10.940;2023-06-04T01:50:57;13.20;68.30
2855;DHT22;1435;49.472;10.940;2023-06-04T01:56:00;13.10;68.50
2855;DHT22;1435;49.472;10.940;2023-06-04T02:01:02;13.00;68.90
2855;DHT22;1435;49.472;10.940;2023-06-04T02:06:05;12.90;69.60
2855;DHT22;1435;49.472;10.940;2023-06-04T02:11:09;12.80;70.40
2855;DHT22;1435;49.472;10.940;2023-06-04T02:16:11;12.80;70.60
2855;DHT22;1435;49.472;10.940;2023-06-04T02:21:12;12.70;71.10
2855;DHT22;1435;49.472;10.940;2023-06-04T02:26:15;12.60;71.40
2855;DHT22;1435;49.472;10.940;2023-06-04T02:31:17;12.60;71.50
2855;DHT22;1435;49.472;10.940;2023-06-04T02:36:19;12.50;72.60
2855;DHT22;1435;49.472;10.940;2023-06-04T02:41:23;12.50;72.90
2855;DHT22;1435;49.472;10.940;2023-06-04T02:46:25;12.40;72.80
2855;DHT22;1435;49.472;10.940;2023-06-04T02:51:27;12.40;73.40
2855;DHT22;1435;49.472;10.940;2023-06-04T02:56:30;12.30;74.10
2855;DHT22;1435;49.472;10.940;2023-06-04T03:01:32;12.30;74.40
2855;DHT22;1435;49.472;10.940;2023-06-04T03:06:33;12.20;73.70
2855;DHT22;1435;49.472;10.940;2023-06-04T03:11:40;12.20;74.30
2855;DHT22;1435;49.472;10.940;2023-06-04T03:16:41;12.20;74.40
2855;DHT22;1435;49.472;10.940;2023-06-04T03:21:43;12.20;74.70
2855;DHT22;1435;49.472;10.940;2023-06-04T03:26:46;12.10;74.80
2855;DHT22;1435;49.472;10.940;2023-06-04T03:31:48;12.00;75.10
2855;DHT22;1435;49.472;10.940;2023-06-04T03:36:50;11.90;76.00
2855;DHT22;1435;49.472;10.940;2023-06-04T03:41:53;11.90;76.10
2855;DHT22;1435;49.472;10.940;2023-06-04T03:46:55;11.90;76.60
2855;DHT22;1435;49.472;10.940;2023-06-04T03:51:57;11.80;76.70
2855;DHT22;1435;49.472;10.940;2023-06-04T03:57:00;11.70;77.40
2855;DHT22;1435;49.472;10.940;2023-06-04T04:02:02;11.70;78.00
2855;DHT22;1435;49.472;10.940;2023-06-04T04:07:05;11.70;78.70
2855;DHT22;1435;49.472;10.940;2023-06-04T04:12:08;11.70;79.60
2855;DHT22;1435;49.472;10.940;2023-06-04T04:17:10;11.80;80.00
2855;DHT22;1435;49.472;10.940;2023-06-04T04:22:12;11.80;81.30
2855;DHT22;1435;49.472;10.940;2023-06-04T04:27:19;11.80;81.30
2855;DHT22;1435;49.472;10.940;2023-06-04T04:32:20;11.90;80.50
2855;DHT22;1435;49.472;10.940;2023-06-04T04:37:23;12.00;80.90
2855;DHT22;1435;49.472;10.940;2023-06-04T04:42:26;12.10;80.90
2855;DHT22;1435;49.472;10.940;2023-06-04T04:47:27;12.10;79.40
2855;DHT22;1435;49.472;10.940;2023-06-04T04:52:29;12.30;78.60
2855;DHT22;1435;49.472;10.940;2023-06-04T04:57:32;12.40;78.20
2855;DHT22;1435;49.472;10.940;2023-06-04T05:02:34;12.50;78.80
2855;DHT22;1435;49.472;10.940;2023-06-04T05:07:36;12.60;78.50
2855;DHT22;1435;49.472;10.940;2023-06-04T05:12:39;12.70;79.50
2855;DHT22;1435;49.472;10.940;2023-06-04T05:17:41;12.80;78.50
2855;DHT22;1435;49.472;10.940;2023-06-04T05:22:42;12.90;78.70
2855;DHT22;1435;49.472;10.940;2023-06-04T05:27:47;12.90;78.30
2855;DHT22;1435;49.472;10.940;2023-06-04T05:32:49;13.00;78.80
2855;DHT22;1435;49.472;10.940;2023-06-04T05:37:51;13.10;78.50
2855;DHT22;1435;49.472;10.940;2023-06-04T05:42:55;13.20;78.70
2855;DHT22;1435;49.472;10.940;2023-06-04T05:47:57;13.30;79.30
2855;DHT22;1435;49.472;10.940;2023-06-04T05:52:59;13.40;77.70
2855;DHT22;1435;49.472;10.940;2023-06-04T05:58:02;13.40;77.80
2855;DHT22;1435;49.472;10.940;2023-06-04T06:03:03;13.50;77.80
2855;DHT22;1435;49.472;10.940;2023-06-04T06:08:06;13.60;78.50
2855;DHT22;1435;49.472;10.940;2023-06-04T06:13:09;13.60;77.80
2855;DHT22;1435;49.472;10.940;2023-06-04T06:18:11;13.70;77.60
2855;DHT22;1435;49.472;10.940;2023-06-04T06:23:13;13.80;78.00
2855;DHT22;1435;49.472;10.940;2023-06-04T06:28:16;13.90;77.80
2855;DHT22;1435;49.472;10.940;2023-06-04T06:33:17;13.90;76.70
2855;DHT22;1435;49.472;10.940;2023-06-04T06:38:21;14.00;75.70
2855;DHT22;1435;49.472;10.940;2023-06-04T06:43:24;14.20;76.60
2855;DHT22;1435;49.472;10.940;2023-06-04T06:48:26;14.30;74.50
2855;DHT22;1435;49.472;10.940;2023-06-04T06:53:28;14.40;74.50
2855;DHT22;1435;49.472;10.940;2023-06-04T06:58:31;14.50;74.50
2855;DHT22;1435;49.472;10.940;2023-06-04T07:03:32;14.60;74.90
2855;DHT22;1435;49.472;10.940;2023-06-04T07:08:34;14.80;75.10
2855;DHT22;1435;49.472;10.940;2023-06-04T07:13:37;14.90;73.50
2855;DHT22;1435;49.472;10.940;2023-06-04T07:18:39;15.10;74.20
2855;DHT22;1435;49.472;10.940;2023-06-04T07:23:41;15.20;75.90
2855;DHT22;1435;49.472;10.940;2023-06-04T07:28:44;15.40;76.00
2855;DHT22;1435;49.472;10.940;2023-06-04T07:33:46;15.50;74.70
2855;DHT22;1435;49.472;10.940;2023-06-04T07:38:47;15.70;75.00
2855;DHT22;1435;49.472;10.940;2023-06-04T07:43:50;15.80;75.20
2855;DHT22;1435;49.472;10.940;2023-06-04T07:48:52;16.00;75.90
2855;DHT22;1435;49.472;10.940;2023-06-04T07:53:55;16.10;75.30
2855;DHT22;1435;49.472;10.940;2023-06-04T07:58:58;16.30;75.00
2855;DHT22;1435;49.472;10.940;2023-06-04T08:03:59;16.40;74.10
2855;DHT22;1435;49.472;10.940;2023-06-04T08:09:01;16.50;74.70
2855;DHT22;1435;49.472;10.940;2023-06-04T08:14:05;16.70;74.20
2855;DHT22;1435;49.472;10.940;2023-06-04T08:19:07;16.80;73.90
2855;DHT22;1435;49.472;10.940;2023-06-04T08:24:09;17.00;74.40
2855;DHT22;1435;49.472;10.940;2023-06-04T08:29:13;17.10;73.30
2855;DHT22;1435;49.472;10.940;2023-06-04T08:34:14;17.20;74.50
2855;DHT22;1435;49.472;10.940;2023-06-04T08:39:16;17.40;74.40
2855;DHT22;1435;49.472;10.940;2023-06-04T08:44:20;17.50;73.70
2855;DHT22;1435;49.472;10.940;2023-06-04T08:49:22;17.60;70.80
2855;DHT22;1435;49.472;10.940;2023-06-04T08:54:26;17.80;71.10
2855;DHT22;1435;49.472;10.940;2023-06-04T08:59:30;17.90;70.90
2855;DHT22;1435;49.472;10.940;2023-06-04T09:04:32;18.10;69.80
2855;DHT22;1435;49.472;10.940;2023-06-04T09:09:38;18.30;67.70
2855;DHT22;1435;49.472;10.940;2023-06-04T09:14:42;18.50;68.80
2855;DHT22;1435;49.472;10.940;2023-06-04T09:19:43;18.70;71.60
2855;DHT22;1435;49.472;10.940;2023-06-04T09:24:47;18.80;69.30
2855;DHT22;1435;49.472;10.940;2023-06-04T09:29:53;18.90;67.00
2855;DHT22;1435;49.472;10.940;2023-06-04T09:34:55;19.10;70.50
2855;DHT22;1435;49.472;10.940;2023-06-04T09:39:58;19.20;67.70
2855;DHT22;1435;49.472;10.940;2023-06-04T09:45:01;19.30;65.80
2855;DHT22;1435;49.472;10.940;2023-06-04T09:50:04;19.40;68.80
2855;DHT22;1435;49.472;10.940;2023-06-04T09:55:15;19.50;66.70
2855;DHT22;1435;49.472;10.940;2023-06-04T10:00:22;19.60;63.70
2855;DHT22;1435;49.472;10.940;2023-06-04T10:05:25;19.70;61.70
2855;DHT22;1435;49.472;10.940;2023-06-04T10:10:28;19.80;61.10
2855;DHT22;1435;49.472;10.940;2023-06-04T10:15:32;19.80;59.50
2855;DHT22;1435;49.472;10.940;2023-06-04T10:20:37;19.90;58.80
2855;DHT22;1435;49.472;10.940;2023-06-04T10:25:39;20.10;59.80
2855;DHT22;1435;49.472;10.940;2023-06-04T10:30:42;20.10;58.00
2855;DHT22;1435;49.472;10.940;2023-06-04T10:35:44;20.20;61.80
2855;DHT22;1435;49.472;10.940;2023-06-04T10:40:46;20.30;58.00
2855;DHT22;1435;49.472;10.940;2023-06-04T10:45:49;20.40;59.70
2855;DHT22;1435;49.472;10.940;2023-06-04T10:50:52;20.50;62.20
2855;DHT22;1435;49.472;10.940;2023-06-04T10:55:53;20.60;62.60
2855;DHT22;1435;49.472;10.940;2023-06-04T11:00:56;20.70;65.60
2855;DHT22;1435;49.472;10.940;2023-06-04T11:05:58;20.80;62.10
2855;DHT22;1435;49.472;10.940;2023-06-04T11:11:10;20.80;59.20
2855;DHT22;1435;49.472;10.940;2023-06-04T11:16:17;20.90;57.20
2855;DHT22;1435;49.472;10.940;2023-06-04T11:21:20;21.00;60.20
2855;DHT22;1435;49.472;10.940;2023-06-04T11:26:21;21.10;59.00
2855;DHT22;1435;49.472;10.940;2023-06-04T11:31:27;21.30;61.70
2855;DHT22;1435;49.472;10.940;2023-06-04T11:36:29;21.40;60.50
2855;DHT22;1435;49.472;10.940;2023-06-04T11:41:32;21.40;54.90
2855;DHT22;1435;49.472;10.940;2023-06-04T11:46:35;21.50;56.50
2855;DHT22;1435;49.472;10.940;2023-06-04T11:51:37;21.50;56.20
2855;DHT22;1435;49.472;10.940;2023-06-04T11:56:39;21.60;55.90
2855;DHT22;1435;49.472;10.940;2023-06-04T12:01:43;21.60;56.50
2855;DHT22;1435;49.472;10.940;2023-06-04T12:06:52;21.70;56.10
2855;DHT22;1435;49.472;10.940;2023-06-04T12:11:58;21.80;55.70
2855;DHT22;1435;49.472;10.940;2023-06-04T12:17:05;21.90;58.30
2855;DHT22;1435;49.472;10.940;2023-06-04T12:22:07;22.10;56.50
2855;DHT22;1435;49.472;10.940;2023-06-04T12:27:09;22.20;52.20
2855;DHT22;1435;49.472;10.940;2023-06-04T12:32:13;22.30;54.20
2855;DHT22;1435;49.472;10.940;2023-06-04T12:37:15;22.30;52.10
2855;DHT22;1435;49.472;10.940;2023-06-04T12:42:18;22.40;51.90
2855;DHT22;1435;49.472;10.940;2023-06-04T12:47:21;22.40;52.80
2855;DHT22;1435;49.472;10.940;2023-06-04T12:52:23;22.50;51.30
2855;DHT22;1435;49.472;10.940;2023-06-04T12:57:25;22.60;53.40
2855;DHT22;1435;49.472;10.940;2023-06-04T13:02:28;22.70;55.90
2855;DHT22;1435;49.472;10.940;2023-06-04T13:07:30;22.80;53.20
2855;DHT22;1435;49.472;10.940;2023-06-04T13:12:32;22.90;52.50
2855;DHT22;1435;49.472;10.940;2023-06-04T13:17:35;23.00;51.60
2855;DHT22;1435;49.472;10.940;2023-06-04T13:22:36;23.20;51.30
2855;DHT22;1435;49.472;10.940;2023-06-04T13:27:40;23.20;51.40
2855;DHT22;1435;49.472;10.940;2023-06-04T13:32:43;23.30;50.70
2855;DHT22;1435;49.472;10.940;2023-06-04T13:37:45;23.30;52.30
2855;DHT22;1435;49.472;10.940;2023-06-04T13:42:46;23.40;53.30
2855;DHT22;1435;49.472;10.940;2023-06-04T13:47:49;23.60;52.70
2855;DHT22;1435;49.472;10.940;2023-06-04T13:52:51;23.80;53.10
2855;DHT22;1435;49.472;10.940;2023-06-04T13:57:53;23.90;53.60
2855;DHT22;1435;49.472;10.940;2023-06-04T14:02:56;24.00;51.00
2855;DHT22;1435;49.472;10.940;2023-06-04T14:07:58;24.10;53.00
2855;DHT22;1435;49.472;10.940;2023-06-04T14:13:00;24.20;48.80
2855;DHT22;1435;49.472;10.940;2023-06-04T14:18:05;24.40;49.50
2855;DHT22;1435;49.472;10.940;2023-06-04T14:23:08;24.40;48.80
2855;DHT22;1435;49.472;10.940;2023-06-04T14:28:12;24.50;47.90
2855;DHT22;1435;49.472;10.940;2023-06-04T14:33:15;24.60;49.00
2855;DHT22;1435;49.472;10.940;2023-06-04T14:38:17;24.60;49.50
2855;DHT22;1435;49.472;10.940;2023-06-04T14:43:18;24.70;51.20
2855;DHT22;1435;49.472;10.940;2023-06-04T14:48:21;24.90;51.30
2855;DHT22;1435;49.472;10.940;2023-06-04T14:53:24;25.00;49.20
2855;DHT22;1435;49.472;10.940;2023-06-04T14:58:25;25.20;50.20
2855;DHT22;1435;49.472;10.940;2023-06-04T15:03:28;25.30;49.30
2855;DHT22;1435;49.472;10.940;2023-06-04T15:08:30;25.50;48.90
2855;DHT22;1435;49.472;10.940;2023-06-04T15:13:32;25.60;47.80
2855;DHT22;1435;49.472;10.940;2023-06-04T15:18:35;25.60;49.00
2855;DHT22;1435;49.472;10.940;2023-06-04T15:23:36;25.70;48.90
2855;DHT22;1435;49.472;10.940;2023-06-04T15:28:38;25.80;46.90
2855;DHT22;1435;49.472;10.940;2023-06-04T15:33:41;25.80;49.70
2855;DHT22;1435;49.472;10.940;2023-06-04T15:38:43;26.00;49.60
2855;DHT22;1435;49.472;10.940;2023-06-04T15:43:45;26.10;48.30
2855;DHT22;1435;49.472;10.940;2023-06-04T15:48:48;26.30;48.70
2855;DHT22;1435;49.472;10.940;2023-06-04T15:53:49;26.40;47.40
2855;DHT22;1435;49.472;10.940;2023-06-04T15:58:51;26.50;47.80
2855;DHT22;1435;49.472;10.940;2023-06-04T16:03:54;26.50;46.80
2855;DHT22;1435;49.472;10.940;2023-06-04T16:08:56;26.60;46.10
2855;DHT22;1435;49.472;10.940;2023-06-04T16:13:57;26.60;46.70
2855;DHT22;1435;49.472;10.940;2023-06-04T16:19:00;26.70;47.30
2855;DHT22;1435;49.472;10.940;2023-06-04T16:24:02;26.80;48.00
2855;DHT22;1435;49.472;10.940;2023-06-04T16:29:04;26.80;46.90
2855;DHT22;1435;49.472;10.940;2023-06-04T16:34:07;26.90;47.50
2855;DHT22;1435;49.472;10.940;2023-06-04T16:39:09;27.00;47.40
2855;DHT22;1435;49.472;10.940;2023-06-04T16:44:11;27.20;46.20
2855;DHT22;1435;49.472;10.940;2023-06-04T16:49:14;27.70;44.60
2855;DHT22;1435;49.472;10.940;2023-06-04T16:54:16;28.40;44.50
2855;DHT22;1435;49.472;10.940;2023-06-04T16:59:18;29.00;42.90
2855;DHT22;1435;49.472;10.940;2023-06-04T17:04:21;29.20;42.60
2855;DHT22;1435;49.472;10.940;2023-06-04T17:09:23;29.20;42.60
2855;DHT22;1435;49.472;10.940;2023-06-04T17:14:24;29.10;42.50
2855;DHT22;1435;49.472;10.940;2023-06-04T17:19:27;29.00;40.60
2855;DHT22;1435;49.472;10.940;2023-06-04T17:24:32;28.80;41.80
2855;DHT22;1435;49.472;10.940;2023-06-04T17:29:33;28.60;40.50
2855;DHT22;1435;49.472;10.940;2023-06-04T17:34:36;28.60;40.10
2855;DHT22;1435;49.472;10.940;2023-06-04T17:39:38;28.60;41.30
2855;DHT22;1435;49.472;10.940;2023-06-04T17:44:40;28.60;40.90
2855;DHT22;1435;49.472;10.940;2023-06-04T17:49:43;28.80;43.60
2855;DHT22;1435;49.472;10.940;2023-06-04T17:54:45;29.20;43.90
2855;DHT22;1435;49.472;10.940;2023-06-04T17:59:49;29.70;43.50
2855;DHT22;1435;49.472;10.940;2023-06-04T18:04:52;30.30;42.80
2855;DHT22;1435;49.472;10.940;2023-06-04T18:09:53;30.90;40.40
2855;DHT22;1435;49.472;10.940;2023-06-04T18:14:55;31.30;40.20
2855;DHT22;1435;49.472;10.940;2023-06-04T18:19:58;31.20;40.60
2855;DHT22;1435;49.472;10.940;2023-06-04T18:25:00;30.70;39.70
2855;DHT22;1435;49.472;10.940;2023-06-04T18:30:02;30.10;41.50
2855;DHT22;1435;49.472;10.940;2023-06-04T18:35:06;29.40;41.00
2855;DHT22;1435;49.472;10.940;2023-06-04T18:40:08;29.00;41.60
2855;DHT22;1435;49.472;10.940;2023-06-04T18:45:13;28.50;42.20
2855;DHT22;1435;49.472;10.940;2023-06-04T18:50:16;28.00;43.50
2855;DHT22;1435;49.472;10.940;2023-06-04T18:55:18;27.70;44.30
2855;DHT22;1435;49.472;10.940;2023-06-04T19:00:20;27.30;47.80
2855;DHT22;1435;49.472;10.940;2023-06-04T19:05:23;26.70;49.10
2855;DHT22;1435;49.472;10.940;2023-06-04T19:10:25;26.20;50.00
2855;DHT22;1435;49.472;10.940;2023-06-04T19:15:27;25.70;51.10
2855;DHT22;1435;49.472;10.940;2023-06-04T19:20:30;25.20;51.80
2855;DHT22;1435;49.472;10.940;2023-06-04T19:25:32;24.80;52.70
2855;DHT22;1435;49.472;10.940;2023-06-04T19:30:34;24.40;52.40
2855;DHT22;1435;49.472;10.940;2023-06-04T19:35:37;24.00;52.50
2855;DHT22;1435;49.472;10.940;2023-06-04T19:40:39;23.70;52.70
2855;DHT22;1435;49.472;10.940;2023-06-04T19:45:42;23.40;53.40
2855;DHT22;1435;49.472;10.940;2023-06-04T19:50:47;23.10;52.70
2855;DHT22;1435;49.472;10.940;2023-06-04T19:55:49;22.80;53.00
2855;DHT22;1435;49.472;10.940;2023-06-04T20:00:50;22.60;53.90
2855;DHT22;1435;49.472;10.940;2023-06-04T20:05:55;22.40;54.60
2855;DHT22;1435;49.472;10.940;2023-06-04T20:10:57;22.30;54.70
2855;DHT22;1435;49.472;10.940;2023-06-04T20:15:59;22.30;55.00
2855;DHT22;1435;49.472;10.940;2023-06-04T20:21:02;22.20;55.90
2855;DHT22;1435;49.472;10.940;2023-06-04T20:26:03;22.10;55.20
2855;DHT22;1435;49.472;10.940;2023-06-04T20:31:05;22.10;55.80
2855;DHT22;1435;49.472;10.940;2023-06-04T20:36:08;22.00;56.30
2855;DHT22;1435;49.472;10.940;2023-06-04T20:41:11;21.90;56.60
2855;DHT22;1435;49.472;10.940;2023-06-04T20:46:13;21.70;57.10
2855;DHT22;1435;49.472;10.940;2023-06-04T20:51:16;21.50;57.60
2855;DHT22;1435;49.472;10.940;2023-06-04T20:56:18;21.40;57.40
2855;DHT22;1435;49.472;10.940;2023-06-04T21:01:19;21.30;56.80
2855;DHT22;1435;49.472;10.940;2023-06-04T21:06:22;21.20;56.50
2855;DHT22;1435;49.472;10.940;2023-06-04T21:11:24;21.30;56.80
2855;DHT22;1435;49.472;10.940;2023-06-04T21:16:27;21.30;56.80
2855;DHT22;1435;49.472;10.940;2023-06-04T21:21:30;21.30;57.00
2855;DHT22;1435;49.472;10.940;2023-06-04T21:26:31;21.30;56.40
2855;DHT22;1435;49.472;10.940;2023-06-04T21:31:33;21.30;56.80
2855;DHT22;1435;49.472;10.940;2023-06-04T21:36:36;21.20;56.70
2855;DHT22;1435;49.472;10.940;2023-06-04T21:41:38;21.10;57.30
2855;DHT22;1435;49.472;10.940;2023-06-04T21:46:40;21.00;58.20
2855;DHT22;1435;49.472;10.940;2023-06-04T21:51:43;20.80;59.00
2855;DHT22;1435;49.472;10.940;2023-06-04T21:56:45;20.50;59.60
2855;DHT22;1435;49.472;10.940;2023-06-04T22:01:47;20.20;60.10
2855;DHT22;1435;49.472;10.940;2023-06-04T22:06:50;20.00;60.90
2855;DHT22;1435;49.472;10.940;2023-06-04T22:11:52;19.80;61.20
2855;DHT22;1435;49.472;10.940;2023-06-04T22:16:55;19.60;62.50
2855;DHT22;1435;49.472;10.940;2023-06-04T22:21:58;19.40;62.60
2855;DHT22;1435;49.472;10.940;2023-06-04T22:26:59;19.20;63.20
2855;DHT22;1435;49.472;10.940;2023-06-04T22:32:01;18.90;63.90
2855;DHT22;1435;49.472;10.940;2023-06-04T22:37:04;18.70;65.20
2855;DHT22;1435;49.472;10.940;2023-06-04T22:42:06;18.60;65.40
2855;DHT22;1435;49.472;10.940;2023-06-04T22:47:08;18.40;65.30
2855;DHT22;1435;49.472;10.940;2023-06-04T22:52:11;18.30;65.60
2855;DHT22;1435;49.472;10.940;2023-06-04T22:57:14;18.20;66.00
2855;DHT22;1435;49.472;10.940;2023-06-04T23:02:16;18.00;66.00
2855;DHT22;1435;49.472;10.940;2023-06-04T23:07:19;17.90;66.20
2855;DHT22;1435;49.472;10.940;2023-06-04T23:12:21;17.80;66.40
2855;DHT22;1435;49.472;10.940;2023-06-04T23:17:22;17.60;66.60
2855;DHT22;1435;49.472;10.940;2023-06-04T23:22:25;17.50;66.80
2855;DHT22;1435;49.472;10.940;2023-06-04T23:27:27;17.40;67.20
2855;DHT22;1435;49.472;10.940;2023-06-04T23:32:29;17.30;67.40
2855;DHT22;1435;49.472;10.940;2023-06-04T23:37:32;17.20;67.70
2855;DHT22;1435;49.472;10.940;2023-06-04T23:42:34;17.10;68.00
2855;DHT22;1435;49.472;10.940;2023-06-04T23:47:35;17.00;68.30
2855;DHT22;1435;49.472;10.940;2023-06-04T23:52:38;16.90;68.60
2855;DHT22;1435;49.472;10.940;2023-06-04T23:57:40;16.80;68.80
